Stations météo

réclame
Mon MeteoGroup
Cairnwell, Grande-Bretagne (3072): Température de l'air & dewpoint: 13.06.2018 15:00:00 - 19.06.2018 15:00:00 (BST)Cairnwell, Grande-Bretagne (3072): Vitesse du vent & gusts: 13.06.2018 15:00:00 - 19.06.2018 15:00:00 (BST)Cairnwell, Grande-Bretagne (3072): Direction du vent: 13.06.2018 15:00:00 - 19.06.2018 15:00:00 (BST)
Date & Time tt [°C] td [°C] ff [km/h] ff [knt] fx [km/h] fx [knt] dd
19.06.2018 15:00:00 6,4 0,1 41 22 68 37 W
19.06.2018 14:00:00 6,6 -0,6 42 23 67 36 WSW
19.06.2018 13:00:00 6,1 -0,3 37 20 65 35 WSW
19.06.2018 12:00:00 5,6 0,8 46 25 67 36 WSW
19.06.2018 11:00:00 4,9 0,7 39 21 68 37 WSW
19.06.2018 10:00:00 4,4 -0,2 55 30 80 43 W
19.06.2018 09:00:00 3,5 1,7 42 23 63 34 W
19.06.2018 08:00:00 3,0 1,8 28 15 68 37 W
19.06.2018 07:00:00 2,7 1,3 50 27 74 40 W
19.06.2018 06:00:00 2,7 1,2 37 20 80 43 W
19.06.2018 05:00:00 2,8 0,3 61 33 102 55 W
19.06.2018 04:00:00 3,0 1,7 67 36 96 52 W
19.06.2018 03:00:00 3,2 1,0 68 37 107 58 W
19.06.2018 02:00:00 3,0 1,7 59 32 85 46 W
19.06.2018 01:00:00 3,0 1,7 67 36 93 50 W
19.06.2018 00:00:00 3,4 0,2 65 35 83 45 W
18.06.2018 23:00:00 3,3 1,7 63 34 85 46 W
18.06.2018 22:00:00 4,0 1,9 61 33 93 50 W
18.06.2018 21:00:00 4,5 1,8 63 34 115 62 W
18.06.2018 20:00:00 4,4 3,2 68 37 113 61 W
18.06.2018 19:00:00 5,7 2,5 70 38 119 64 WSW
18.06.2018 18:00:00 6,5 0,3 91 49 115 62 W
18.06.2018 17:00:00 6,6 1,2 89 48 115 62 WSW
18.06.2018 16:00:00 7,1 2,2 76 41 109 59 WSW
18.06.2018 15:00:00 6,7 2,9 81 44 102 55 WSW
18.06.2018 14:00:00 6,3 2,1 87 47 109 59 WSW
18.06.2018 13:00:00 6,5 2,4 67 36 96 52 WSW
18.06.2018 12:00:00 5,9 1,7 65 35 89 48 WSW
18.06.2018 11:00:00 5,5 3,0 44 24 76 41 WSW
18.06.2018 10:00:00 5,1 2,7 50 27 81 44 WSW
18.06.2018 09:00:00 4,7 2,4 42 23 78 42 WSW
18.06.2018 08:00:00 4,2 2,7 59 32 76 41 WSW
18.06.2018 07:00:00 4,4 3,0 41 22 72 39 WSW
18.06.2018 06:00:00 4,5 3,6 37 20 72 39 W
18.06.2018 05:00:00 4,7 4,2 41 22 70 38 WSW
18.06.2018 04:00:00 5,0 4,5 39 21 67 36 W
18.06.2018 03:00:00 5,2 5,2 39 21 74 40 WSW
18.06.2018 02:00:00 5,9 5,9 48 26 80 43 WSW
18.06.2018 01:00:00 6,6 6,5 50 27 76 41 WSW
18.06.2018 00:00:00 7,5 7,5 37 20 65 35 SW
17.06.2018 23:00:00 7,5 7,5 48 26 61 33 SW
17.06.2018 22:00:00 7,5 7,5 42 23 59 32 SSW
17.06.2018 21:00:00 7,2 7,1 37 20 52 28 SSW
17.06.2018 20:00:00 6,8 6,8 44 24 63 34 S
17.06.2018 19:00:00 6,9 6,9 55 30 68 37 SSW
17.06.2018 18:00:00 6,8 6,8 48 26 65 35 SSW
17.06.2018 17:00:00 7,0 6,2 52 28 61 33 SSW
17.06.2018 16:00:00 7,2 5,3 50 27 55 30 SSW
17.06.2018 15:00:00 7,9 4,7 35 19 46 25 SW
17.06.2018 14:00:00 7,6 4,4 26 14 - - SW
17.06.2018 13:00:00 6,5 4,6 24 13 - - SW
17.06.2018 12:00:00 5,7 5,6 22 12 46 25 SW
17.06.2018 11:00:00 5,3 4,9 21 11 - - SW
17.06.2018 10:00:00 5,2 3,4 22 12 - - SW
17.06.2018 09:00:00 4,7 2,2 11 6 - - W
17.06.2018 08:00:00 3,7 2,5 16 9 - - SSW
17.06.2018 07:00:00 4,1 0,1 4 2 - - SSW
17.06.2018 06:00:00 5,0 1,1 11 6 - - W
17.06.2018 05:00:00 4,0 4,0 11 6 - - WNW
17.06.2018 04:00:00 2,9 2,9 24 13 - - NW
17.06.2018 03:00:00 3,6 3,6 28 15 50 27 NW
17.06.2018 02:00:00 4,0 4,0 44 24 57 31 NW
17.06.2018 01:00:00 4,4 4,4 42 23 52 28 WNW
17.06.2018 00:00:00 4,8 4,8 41 22 50 27 WNW
16.06.2018 23:00:00 5,0 5,0 42 23 52 28 WNW
16.06.2018 22:00:00 5,5 5,5 21 11 - - WNW
16.06.2018 21:00:00 5,4 5,4 8 4 - - WNW
16.06.2018 20:00:00 5,3 5,3 11 6 - - NNW
16.06.2018 19:00:00 5,4 5,4 5 3 - - SE
16.06.2018 18:00:00 5,2 5,2 18 10 - - ESE
16.06.2018 17:00:00 5,3 5,3 22 12 48 26 SE
16.06.2018 16:00:00 5,4 5,4 39 21 70 38 SSE
16.06.2018 15:00:00 5,1 5,1 46 25 65 35 SE
16.06.2018 14:00:00 4,5 4,5 55 30 65 35 SE
16.06.2018 13:00:00 5,3 5,3 52 28 74 40 SSE
16.06.2018 12:00:00 5,3 5,3 55 30 70 38 S
16.06.2018 11:00:00 5,2 5,2 54 29 67 36 S
16.06.2018 10:00:00 5,3 5,3 44 24 59 32 SSE
16.06.2018 09:00:00 5,2 5,2 46 25 57 31 S
16.06.2018 08:00:00 5,0 5,0 44 24 54 29 S
16.06.2018 07:00:00 4,6 4,6 35 19 46 25 SSE
16.06.2018 06:00:00 4,4 4,4 31 17 - - S
16.06.2018 05:00:00 4,3 4,3 28 15 - - S
16.06.2018 04:00:00 4,2 4,2 18 10 - - S
16.06.2018 03:00:00 4,2 4,1 28 15 - - SSW
16.06.2018 02:00:00 4,0 4,0 24 13 - - SSW
16.06.2018 01:00:00 4,0 4,0 28 15 - - SSW
16.06.2018 00:00:00 3,9 3,9 22 12 - - SSW
15.06.2018 23:00:00 3,9 3,9 22 12 - - SSW
15.06.2018 22:00:00 4,4 4,4 28 15 - - SW
15.06.2018 21:00:00 4,7 4,7 35 19 46 25 SW
15.06.2018 20:00:00 5,1 5,1 31 17 - - SW
15.06.2018 19:00:00 5,7 4,4 39 21 57 31 WSW
15.06.2018 18:00:00 5,6 4,4 29 16 54 29 WSW
15.06.2018 17:00:00 5,3 4,6 39 21 55 30 WSW
15.06.2018 16:00:00 6,3 3,6 35 19 57 31 SW
15.06.2018 15:00:00 6,3 2,9 42 23 63 34 SW
15.06.2018 14:00:00 5,5 3,5 44 24 61 33 W
15.06.2018 13:00:00 6,0 3,3 39 21 70 38 SW
15.06.2018 12:00:00 4,9 3,1 52 28 70 38 WSW
15.06.2018 11:00:00 4,0 2,9 52 28 78 42 WSW
15.06.2018 10:00:00 4,2 2,4 48 26 72 39 WSW
15.06.2018 09:00:00 3,6 3,6 48 26 65 35 WSW
15.06.2018 08:00:00 3,4 3,4 41 22 59 32 WSW
15.06.2018 07:00:00 3,4 3,4 29 16 52 28 SW
15.06.2018 06:00:00 3,4 3,4 28 15 63 34 SW
15.06.2018 05:00:00 3,3 3,3 41 22 63 34 WSW
15.06.2018 04:00:00 3,3 3,3 37 20 54 29 SW
15.06.2018 03:00:00 3,3 3,3 37 20 61 33 SW
15.06.2018 02:00:00 3,3 3,3 52 28 - - WSW
15.06.2018 01:00:00 3,7 3,4 80 43 102 55 WSW
15.06.2018 00:00:00 3,2 3,0 42 23 76 41 W
14.06.2018 23:00:00 3,1 2,9 50 27 87 47 WSW
14.06.2018 22:00:00 3,5 2,6 50 27 89 48 WSW
14.06.2018 21:00:00 3,6 3,2 52 28 93 50 W
14.06.2018 20:00:00 4,5 2,6 55 30 87 47 W
14.06.2018 19:00:00 5,0 1,6 67 36 107 58 W
14.06.2018 18:00:00 5,5 1,3 65 35 85 46 W
14.06.2018 17:00:00 5,4 3,0 65 35 93 50 W
14.06.2018 16:00:00 5,1 3,3 55 30 124 67 W
14.06.2018 15:00:00 4,1 2,8 80 43 141 76 W
14.06.2018 14:00:00 5,3 2,9 96 52 137 74 W
14.06.2018 13:00:00 4,6 4,2 93 50 133 72 W
14.06.2018 12:00:00 5,9 5,8 98 53 139 75 W
14.06.2018 11:00:00 7,0 6,6 106 57 161 87 W
14.06.2018 10:00:00 7,5 7,4 70 38 98 53 SW
14.06.2018 09:00:00 7,3 7,3 83 45 120 65 SW
14.06.2018 08:00:00 7,8 7,8 68 37 124 67 SW
14.06.2018 07:00:00 8,9 8,9 96 52 128 69 SSW
14.06.2018 06:00:00 9,2 9,2 98 53 128 69 SSW
14.06.2018 05:00:00 9,5 9,4 96 52 119 64 SSW
14.06.2018 04:00:00 9,3 9,2 87 47 106 57 SSW
14.06.2018 03:00:00 8,9 8,9 76 41 - - SSW
14.06.2018 02:00:00 8,5 8,5 76 41 - - S
14.06.2018 01:00:00 8,1 8,1 61 33 87 47 S
14.06.2018 00:00:00 7,9 7,9 76 41 96 52 S
13.06.2018 23:00:00 7,7 7,7 80 43 - - S
13.06.2018 22:00:00 7,5 7,5 76 41 89 48 S
13.06.2018 21:00:00 7,3 7,3 70 38 89 48 S
13.06.2018 20:00:00 7,3 7,2 72 39 - - S
13.06.2018 19:00:00 7,2 7,2 70 38 83 45 S
13.06.2018 18:00:00 7,2 7,2 68 37 78 42 S
13.06.2018 17:00:00 6,8 6,8 61 33 70 38 S
13.06.2018 16:00:00 6,4 6,4 50 27 57 31 SSW
13.06.2018 15:00:00 6,2 5,8 44 24 57 31 SW

tt = Température de l'air
td = dewpoint
ff = Vitesse du vent
fx = gusts
dd = Direction du vent

stations d'obs. à proximité